Time;durP1;ratioP1;P1;durP2;ratioP2;P2;SDS_P1;SDS_P2;PMS_P1;PMS_P2;Temp;Humidity;BMP_temperature;BMP_pressure;BME280_temperature;BME280_humidity;BME280_pressure;Samples;Min_cycle;Max_cycle;Signal;HPM_P1;HPM_P2
2023/01/07 00:01:41;;;;;;;7.33;6.00;;;10.60;99.90;;;;;;5075201;28;20181;-68
2023/01/07 00:04:12;;;;;;;7.60;5.27;;;10.60;99.90;;;;;;5073789;28;20188;-68
2023/01/07 00:06:43;;;;;;;9.30;5.40;;;10.50;99.90;;;;;;5074764;28;20266;-69
2023/01/07 00:09:15;;;;;;;8.47;5.27;;;10.60;99.90;;;;;;5074697;28;20543;-68
2023/01/07 00:11:44;;;;;;;6.80;5.23;;;10.60;99.90;;;;;;5073388;28;20196;-68
2023/01/07 00:14:14;;;;;;;14.47;5.67;;;10.60;99.90;;;;;;5071178;28;20200;-69
2023/01/07 00:16:43;;;;;;;9.23;5.60;;;10.60;99.90;;;;;;5054552;28;20189;-68
2023/01/07 00:19:14;;;;;;;5.73;4.83;;;10.50;99.90;;;;;;5054336;28;20576;-68
2023/01/07 00:21:44;;;;;;;9.80;5.27;;;10.50;99.90;;;;;;5070193;28;20199;-68
2023/01/07 00:24:13;;;;;;;6.77;5.20;;;10.50;99.90;;;;;;5087102;28;20197;-69
2023/01/07 00:26:44;;;;;;;8.73;4.77;;;10.50;99.90;;;;;;5054345;28;20275;-68
2023/01/07 00:29:12;;;;;;;9.10;4.97;;;10.50;99.90;;;;;;5072227;28;20239;-68
2023/01/07 00:31:41;;;;;;;8.87;5.53;;;10.50;99.90;;;;;;5074217;28;20203;-68
2023/01/07 00:34:09;;;;;;;7.33;5.30;;;10.40;99.90;;;;;;5074463;28;20199;-68
2023/01/07 00:36:40;;;;;;;7.90;5.47;;;10.40;99.90;;;;;;5058494;28;20201;-68
2023/01/07 00:39:13;;;;;;;7.43;4.97;;;10.40;99.90;;;;;;5052938;28;20192;-68
2023/01/07 00:42:52;;;;;;;10.33;5.17;;;10.50;99.90;;;;;;5054349;28;20551;-68
2023/01/07 00:44:33;;;;;;;6.43;4.90;;;10.50;99.90;;;;;;5053938;28;20197;-69
2023/01/07 00:47:02;;;;;;;7.37;5.03;;;10.50;99.90;;;;;;5053889;28;20203;-69
2023/01/07 00:49:30;;;;;;;8.07;4.87;;;10.50;99.90;;;;;;5054099;28;20251;-69
2023/01/07 00:51:58;;;;;;;7.00;4.90;;;10.50;99.90;;;;;;5061672;28;20204;-68
2023/01/07 00:54:28;;;;;;;8.93;5.30;;;10.50;99.90;;;;;;5073758;28;20196;-68
2023/01/07 00:56:57;;;;;;;5.77;4.70;;;10.50;99.90;;;;;;5073640;28;20192;-68
2023/01/07 00:59:25;;;;;;;5.73;5.13;;;10.60;99.90;;;;;;5073210;28;20184;-68
2023/01/07 01:01:53;;;;;;;10.20;5.10;;;10.60;99.90;;;;;;5073625;28;20192;-68
2023/01/07 01:04:22;;;;;;;9.63;5.23;;;10.60;99.90;;;;;;5073643;28;20188;-67
2023/01/07 01:06:50;;;;;;;8.27;5.17;;;10.60;99.90;;;;;;5074130;28;20193;-68
2023/01/07 01:09:21;;;;;;;7.67;5.57;;;10.60;99.90;;;;;;5072413;28;20219;-68
2023/01/07 01:11:50;;;;;;;10.33;5.00;;;10.50;99.90;;;;;;5074029;28;20199;-68
2023/01/07 01:14:18;;;;;;;6.07;5.00;;;10.50;99.90;;;;;;5073474;28;20596;-68
2023/01/07 01:16:47;;;;;;;13.43;5.13;;;10.60;99.90;;;;;;5073743;28;20610;-68
2023/01/07 01:19:15;;;;;;;7.23;5.17;;;10.60;99.90;;;;;;5072410;28;20184;-68
2023/01/07 01:21:44;;;;;;;5.97;4.90;;;10.70;99.90;;;;;;5073478;28;20278;-68
2023/01/07 01:24:12;;;;;;;6.47;4.73;;;10.70;99.90;;;;;;5073891;28;20195;-67
2023/01/07 01:26:41;;;;;;;5.97;5.23;;;10.70;99.90;;;;;;5072184;28;20195;-68
2023/01/07 01:29:10;;;;;;;8.30;5.30;;;10.70;99.90;;;;;;5073191;28;20694;-67
2023/01/07 01:31:41;;;;;;;6.47;5.07;;;10.70;99.90;;;;;;5072178;28;20200;-67
2023/01/07 01:34:10;;;;;;;7.07;5.20;;;10.70;99.90;;;;;;5073296;28;20192;-68
2023/01/07 01:36:38;;;;;;;8.77;5.00;;;10.70;99.90;;;;;;5073375;28;20196;-68
2023/01/07 01:39:07;;;;;;;7.53;5.57;;;10.70;99.90;;;;;;5073189;28;20200;-68
2023/01/07 01:41:35;;;;;;;7.63;5.33;;;10.70;99.90;;;;;;5073118;28;20697;-67
2023/01/07 01:44:39;;;;;;;13.93;5.60;;;10.70;99.90;;;;;;5071780;28;20180;-68
2023/01/07 01:47:16;;;;;;;7.73;5.03;;;10.70;99.90;;;;;;5055829;28;20219;-68
2023/01/07 01:49:48;;;;;;;7.70;5.50;;;10.70;99.90;;;;;;5073118;28;20203;-67
2023/01/07 01:52:21;;;;;;;6.73;5.40;;;10.70;99.90;;;;;;5073464;28;20186;-68
2023/01/07 01:54:55;;;;;;;11.80;5.47;;;10.70;99.90;;;;;;5073046;28;20673;-67
2023/01/07 01:57:24;;;;;;;6.17;5.57;;;10.70;99.90;;;;;;5073323;28;20582;-68
2023/01/07 01:59:55;;;;;;;8.63;5.60;;;10.70;99.90;;;;;;5073102;28;20188;-68
2023/01/07 02:07:13;;;;;;;6.17;4.90;;;10.70;99.90;;;;;;5073060;28;20164;-68
2023/01/07 02:09:42;;;;;;;6.80;5.30;;;10.80;99.90;;;;;;5072766;28;20211;-68
2023/01/07 02:12:18;;;;;;;9.00;5.90;;;10.70;99.90;;;;;;5071748;28;20641;-68
2023/01/07 02:15:08;;;;;;;7.73;5.00;;;10.80;99.90;;;;;;5075595;28;20192;-68
2023/01/07 02:17:51;;;;;;;10.80;6.00;;;10.80;99.90;;;;;;5058853;28;20219;-68
2023/01/07 02:20:30;;;;;;;8.33;6.03;;;10.70;99.90;;;;;;5075739;28;20214;-68
2023/01/07 02:23:22;;;;;;;7.87;5.93;;;10.70;99.90;;;;;;5076814;28;20230;-69
2023/01/07 02:26:16;;;;;;;10.37;7.30;;;10.70;99.90;;;;;;5075260;28;20204;-68
2023/01/07 02:29:12;;;;;;;11.83;7.80;;;10.70;99.90;;;;;;5109182;28;20230;-68
2023/01/07 02:32:17;;;;;;;11.70;8.03;;;10.70;99.90;;;;;;5075918;28;20279;-68
2023/01/07 02:34:54;;;;;;;11.50;7.53;;;10.70;99.90;;;;;;5029664;28;20208;-68
2023/01/07 02:37:31;;;;;;;14.93;8.50;;;10.70;99.90;;;;;;5076393;28;20194;-68
2023/01/07 02:40:07;;;;;;;12.53;7.93;;;10.60;99.90;;;;;;5075139;28;20184;-68
2023/01/07 02:42:44;;;;;;;17.20;7.33;;;10.60;99.90;;;;;;5073376;28;20188;-68
2023/01/07 02:45:20;;;;;;;8.33;6.93;;;10.60;99.90;;;;;;5056235;28;20203;-68
2023/01/07 02:47:54;;;;;;;7.87;6.60;;;10.60;99.90;;;;;;5056234;28;20193;-68
2023/01/07 02:50:22;;;;;;;8.20;6.30;;;10.60;99.90;;;;;;5085460;28;20295;-69
2023/01/07 02:52:51;;;;;;;9.50;6.03;;;10.60;99.90;;;;;;5074992;28;20223;-68
2023/01/07 02:55:27;;;;;;;8.73;6.23;;;10.60;99.90;;;;;;5076308;28;20302;-67
2023/01/07 02:58:21;;;;;;;8.77;5.90;;;10.60;99.90;;;;;;5072558;28;20216;-67
2023/01/07 03:01:21;;;;;;;8.37;5.27;;;10.60;99.90;;;;;;5050844;28;20205;-68
2023/01/07 03:04:10;;;;;;;8.60;5.50;;;10.60;99.90;;;;;;5088924;28;20192;-68
2023/01/07 03:06:56;;;;;;;5.53;5.00;;;10.60;99.90;;;;;;5056258;28;20295;-68
2023/01/07 03:09:32;;;;;;;9.03;5.30;;;10.60;99.90;;;;;;5054927;28;20614;-68
2023/01/07 03:12:07;;;;;;;10.70;5.30;;;10.70;99.90;;;;;;5054761;28;20193;-69
2023/01/07 03:14:41;;;;;;;9.50;5.17;;;10.60;99.90;;;;;;5063458;28;20184;-69
2023/01/07 03:17:15;;;;;;;5.60;4.70;;;10.70;99.90;;;;;;5075609;28;20227;-67
2023/01/07 03:19:50;;;;;;;5.90;4.43;;;10.70;99.90;;;;;;5038103;28;20185;-68
2023/01/07 03:22:22;;;;;;;6.83;4.43;;;10.70;99.90;;;;;;5073970;28;20203;-68
2023/01/07 03:24:53;;;;;;;4.77;4.37;;;10.80;99.90;;;;;;5074271;28;20192;-68
2023/01/07 03:27:23;;;;;;;7.27;4.00;;;10.80;99.90;;;;;;5108308;28;20200;-68
2023/01/07 03:29:52;;;;;;;4.17;3.73;;;10.80;99.90;;;;;;5075509;28;20216;-68
2023/01/07 03:32:26;;;;;;;5.20;3.93;;;10.90;99.90;;;;;;5054207;28;20181;-68
2023/01/07 03:34:56;;;;;;;6.93;4.03;;;10.90;99.90;;;;;;5055485;28;20551;-68
2023/01/07 03:37:26;;;;;;;7.27;3.73;;;10.90;99.90;;;;;;5062897;28;20301;-68
2023/01/07 03:39:55;;;;;;;7.40;3.57;;;11.00;99.90;;;;;;5074180;28;20184;-69
2023/01/07 03:42:38;;;;;;;4.43;3.40;;;10.90;99.90;;;;;;5071689;28;20211;-68
2023/01/07 03:45:10;;;;;;;4.17;3.80;;;11.00;99.90;;;;;;5073237;28;20195;-68
2023/01/07 03:47:41;;;;;;;6.20;3.57;;;11.00;99.90;;;;;;5108074;28;20234;-68
2023/01/07 03:50:12;;;;;;;4.60;3.90;;;10.90;99.90;;;;;;5074927;28;20211;-68
2023/01/07 03:52:41;;;;;;;4.00;3.50;;;10.90;99.90;;;;;;5075333;28;20184;-69
2023/01/07 03:55:10;;;;;;;4.10;3.43;;;10.90;99.90;;;;;;5075268;28;20188;-68
2023/01/07 03:57:39;;;;;;;4.70;3.50;;;11.00;99.90;;;;;;5073754;28;20215;-69
2023/01/07 04:00:10;;;;;;;4.33;3.40;;;11.00;99.90;;;;;;5108101;28;20730;-68
2023/01/07 04:02:39;;;;;;;3.47;3.17;;;10.90;99.90;;;;;;5074881;28;20196;-69
2023/01/07 04:05:09;;;;;;;3.70;3.40;;;10.90;99.90;;;;;;5074557;28;20203;-68
2023/01/07 04:07:38;;;;;;;5.27;3.27;;;10.90;99.90;;;;;;5074912;28;20218;-68
2023/01/07 04:10:08;;;;;;;2.70;2.60;;;10.90;99.90;;;;;;5074664;28;20294;-68
2023/01/07 04:12:37;;;;;;;3.23;2.77;;;11.00;99.90;;;;;;5073359;28;20192;-68
2023/01/07 04:15:06;;;;;;;3.83;3.53;;;10.90;99.90;;;;;;5074855;28;20287;-68
2023/01/07 04:17:34;;;;;;;3.87;2.50;;;10.90;99.90;;;;;;5073465;28;20230;-68
2023/01/07 04:20:06;;;;;;;3.33;3.03;;;10.80;99.90;;;;;;5106710;28;20199;-68
2023/01/07 04:22:35;;;;;;;2.83;2.63;;;10.80;99.90;;;;;;5073279;28;20272;-68
2023/01/07 04:25:05;;;;;;;3.13;2.87;;;10.80;99.90;;;;;;5073359;28;20188;-68
2023/01/07 04:27:33;;;;;;;5.03;2.97;;;10.80;99.90;;;;;;5074596;28;20693;-67
2023/01/07 04:30:01;;;;;;;5.17;2.90;;;10.80;99.90;;;;;;5074294;28;20216;-68
2023/01/07 04:32:30;;;;;;;3.20;3.00;;;10.80;99.90;;;;;;5074264;28;20199;-68
2023/01/07 04:34:59;;;;;;;3.70;2.60;;;10.80;99.90;;;;;;5060413;28;20283;-67
2023/01/07 04:37:27;;;;;;;4.33;2.83;;;10.80;99.90;;;;;;5053643;28;20193;-68
2023/01/07 04:39:55;;;;;;;2.87;2.57;;;10.80;99.90;;;;;;5052821;28;20521;-68
2023/01/07 04:42:25;;;;;;;3.30;2.70;;;10.80;99.90;;;;;;5053089;28;20195;-67
2023/01/07 04:44:53;;;;;;;2.73;2.57;;;10.70;99.90;;;;;;5052966;28;20201;-67
2023/01/07 04:47:22;;;;;;;2.80;2.60;;;10.70;99.90;;;;;;5053897;28;20184;-68
2023/01/07 04:49:50;;;;;;;2.70;2.50;;;10.70;99.90;;;;;;5071131;28;20204;-68
2023/01/07 04:52:19;;;;;;;3.90;2.57;;;10.70;99.90;;;;;;5073859;28;20205;-68
2023/01/07 04:54:47;;;;;;;3.23;2.90;;;10.70;99.90;;;;;;5072850;28;20578;-68
2023/01/07 04:57:15;;;;;;;2.67;2.53;;;10.70;99.90;;;;;;5072426;28;20212;-68
2023/01/07 04:59:45;;;;;;;2.23;2.13;;;10.70;99.90;;;;;;5072582;28;20600;-67
2023/01/07 05:02:13;;;;;;;2.50;2.40;;;10.60;99.90;;;;;;5072439;28;20572;-67
2023/01/07 05:05:19;;;;;;;2.50;2.30;;;10.60;99.90;;;;;;5073957;28;20329;-68
2023/01/07 05:08:03;;;;;;;5.23;2.47;;;10.60;99.90;;;;;;5072683;28;20218;-68
2023/01/07 05:10:31;;;;;;;3.07;2.30;;;10.60;99.90;;;;;;5072548;28;20222;-68
2023/01/07 05:13:04;;;;;;;3.60;2.40;;;10.60;99.90;;;;;;5073556;28;20555;-67
2023/01/07 05:15:35;;;;;;;4.07;2.00;;;10.60;99.90;;;;;;5072606;28;20191;-68
2023/01/07 05:18:06;;;;;;;2.37;2.20;;;10.60;99.90;;;;;;5072222;28;20231;-68
2023/01/07 05:20:34;;;;;;;2.20;2.10;;;10.60;99.90;;;;;;5072505;28;20283;-68
2023/01/07 05:23:03;;;;;;;3.43;2.47;;;10.60;99.90;;;;;;5073373;28;20227;-68
2023/01/07 05:25:31;;;;;;;3.17;2.20;;;10.50;99.90;;;;;;5053507;28;20667;-68
2023/01/07 05:27:59;;;;;;;2.33;2.17;;;10.50;99.90;;;;;;5053232;28;20196;-67
2023/01/07 05:30:28;;;;;;;2.13;2.00;;;10.50;99.90;;;;;;5053216;28;20215;-68
2023/01/07 05:32:58;;;;;;;2.13;2.03;;;10.50;99.90;;;;;;5052352;28;20639;-68
2023/01/07 05:35:26;;;;;;;2.17;2.10;;;10.50;99.90;;;;;;5051753;28;20318;-67
2023/01/07 05:37:54;;;;;;;2.93;2.17;;;10.50;99.90;;;;;;5053003;28;20196;-68
2023/01/07 05:40:22;;;;;;;2.10;2.00;;;10.50;99.90;;;;;;5053218;28;20202;-68
2023/01/07 05:42:51;;;;;;;1.83;1.77;;;10.40;99.90;;;;;;5052801;28;20200;-68
2023/01/07 05:45:20;;;;;;;3.80;2.00;;;10.50;99.90;;;;;;5053199;28;20201;-68
2023/01/07 05:47:49;;;;;;;2.63;2.00;;;10.50;99.90;;;;;;5067393;28;20188;-68
2023/01/07 05:50:18;;;;;;;4.80;2.10;;;10.50;99.90;;;;;;5071787;28;20221;-68
2023/01/07 05:52:47;;;;;;;2.10;2.00;;;10.50;99.90;;;;;;5072374;28;20689;-68
2023/01/07 05:55:15;;;;;;;2.23;2.00;;;10.50;99.90;;;;;;5052090;28;20189;-68
2023/01/07 05:57:44;;;;;;;2.00;2.00;;;10.50;99.90;;;;;;5058416;28;20204;-68
2023/01/07 06:00:13;;;;;;;2.10;2.00;;;10.50;99.90;;;;;;5071694;28;20185;-68
2023/01/07 06:02:42;;;;;;;1.80;1.70;;;10.60;99.90;;;;;;5072934;28;20195;-68
2023/01/07 06:05:11;;;;;;;2.93;1.53;;;10.60;99.90;;;;;;5072531;28;20188;-68
2023/01/07 06:07:41;;;;;;;1.90;1.80;;;10.50;99.90;;;;;;5073155;28;20690;-68
2023/01/07 06:10:10;;;;;;;2.63;1.80;;;10.50;99.90;;;;;;5072264;28;20196;-68
2023/01/07 06:12:38;;;;;;;2.43;1.70;;;10.50;99.90;;;;;;5063168;28;20678;-68
2023/01/07 06:15:07;;;;;;;1.63;1.53;;;10.50;99.90;;;;;;5073224;28;20238;-68
2023/01/07 06:17:36;;;;;;;2.30;2.20;;;10.50;99.90;;;;;;5072750;28;20232;-68
2023/01/07 06:20:05;;;;;;;1.70;1.60;;;10.50;99.90;;;;;;5073282;28;20185;-69
2023/01/07 06:22:34;;;;;;;2.03;1.70;;;10.50;99.90;;;;;;5072654;28;20199;-67
2023/01/07 06:25:04;;;;;;;2.80;1.83;;;10.60;99.90;;;;;;5072886;28;20195;-68
2023/01/07 06:27:32;;;;;;;1.77;1.77;;;10.60;99.90;;;;;;5071824;28;20196;-68
2023/01/07 06:30:01;;;;;;;1.70;1.60;;;10.60;99.90;;;;;;5072796;28;20211;-68
2023/01/07 06:32:29;;;;;;;1.23;1.23;;;10.60;99.90;;;;;;5058583;28;20217;-68
2023/01/07 06:34:57;;;;;;;2.77;1.60;;;10.60;99.90;;;;;;5036690;28;20704;-67
2023/01/07 06:37:25;;;;;;;1.50;1.47;;;10.60;99.90;;;;;;5080013;28;20219;-68
2023/01/07 06:39:54;;;;;;;1.83;1.70;;;10.60;99.90;;;;;;5081555;28;20196;-68
2023/01/07 06:42:23;;;;;;;2.07;1.97;;;10.60;99.90;;;;;;5072828;28;20200;-67
2023/01/07 06:44:52;;;;;;;4.67;2.57;;;10.60;99.90;;;;;;5072751;28;20200;-68
2023/01/07 06:47:21;;;;;;;4.23;3.00;;;10.60;99.90;;;;;;5072622;28;20196;-68
2023/01/07 06:49:51;;;;;;;5.60;3.63;;;10.60;99.90;;;;;;5072649;28;20275;-68
2023/01/07 06:52:20;;;;;;;7.80;4.33;;;10.60;99.90;;;;;;5072495;28;20212;-68
2023/01/07 06:54:48;;;;;;;10.13;3.60;;;10.60;99.90;;;;;;5072676;28;20192;-68
2023/01/07 06:57:16;;;;;;;8.73;4.47;;;10.60;99.90;;;;;;5072527;28;20299;-68
2023/01/07 06:59:46;;;;;;;6.60;4.00;;;10.60;99.90;;;;;;5073324;28;20275;-68
2023/01/07 07:02:19;;;;;;;10.73;4.10;;;10.60;99.90;;;;;;5076308;28;20631;-68
2023/01/07 07:04:47;;;;;;;5.33;3.70;;;10.60;99.90;;;;;;5061737;28;20559;-67
2023/01/07 07:07:16;;;;;;;6.67;3.40;;;10.60;99.90;;;;;;5054991;28;20517;-68
2023/01/07 07:09:45;;;;;;;7.93;3.83;;;10.60;99.90;;;;;;5056376;28;20184;-68
2023/01/07 07:12:14;;;;;;;5.60;3.60;;;10.60;99.90;;;;;;5072423;28;20222;-68
2023/01/07 07:14:43;;;;;;;6.00;3.20;;;10.60;99.90;;;;;;5054583;28;20547;-68
2023/01/07 07:17:12;;;;;;;3.93;3.20;;;10.60;99.90;;;;;;5070766;28;20322;-68
2023/01/07 07:19:41;;;;;;;8.67;3.70;;;10.60;99.90;;;;;;5075913;28;20191;-68
2023/01/07 07:22:09;;;;;;;4.53;3.17;;;10.60;99.90;;;;;;5075943;28;20544;-68
2023/01/07 07:24:37;;;;;;;5.33;3.47;;;10.60;99.90;;;;;;5075348;28;20192;-68
2023/01/07 07:27:06;;;;;;;3.90;3.17;;;10.60;99.90;;;;;;5075733;28;20250;-68
2023/01/07 07:29:35;;;;;;;4.03;3.03;;;10.60;99.90;;;;;;5075477;28;20287;-68
2023/01/07 07:32:03;;;;;;;2.97;2.67;;;10.60;99.90;;;;;;5074090;28;20211;-68
2023/01/07 07:34:33;;;;;;;6.53;3.23;;;10.70;99.90;;;;;;5075488;28;20283;-68
2023/01/07 07:37:03;;;;;;;3.10;2.53;;;10.70;99.90;;;;;;5075471;28;20200;-67
2023/01/07 07:39:32;;;;;;;5.00;3.10;;;10.70;99.90;;;;;;5074535;28;20192;-67
2023/01/07 07:42:03;;;;;;;2.80;2.40;;;10.80;99.90;;;;;;5074944;28;20203;-68
2023/01/07 07:44:31;;;;;;;3.23;2.60;;;10.70;99.90;;;;;;5055627;28;20203;-67
2023/01/07 07:46:59;;;;;;;2.83;2.60;;;10.70;99.90;;;;;;5067458;28;20554;-67
2023/01/07 07:49:28;;;;;;;3.00;2.70;;;10.70;99.90;;;;;;5073452;28;20659;-67
2023/01/07 07:51:57;;;;;;;2.33;2.17;;;10.70;99.90;;;;;;5074843;28;20212;-68
2023/01/07 07:54:27;;;;;;;2.17;2.00;;;10.60;99.90;;;;;;5075017;28;20188;-67
2023/01/07 07:56:57;;;;;;;2.30;2.20;;;10.70;99.90;;;;;;5074995;28;20200;-67
2023/01/07 07:59:25;;;;;;;2.87;2.10;;;10.70;99.90;;;;;;5075367;28;20211;-68
2023/01/07 08:01:53;;;;;;;2.13;2.03;;;10.70;99.90;;;;;;5074891;28;20203;-68
2023/01/07 08:04:22;;;;;;;2.30;2.00;;;10.70;99.90;;;;;;5073928;28;20200;-67
2023/01/07 08:06:50;;;;;;;2.10;1.87;;;10.70;99.90;;;;;;5073767;28;20533;-68
2023/01/07 08:09:22;;;;;;;4.37;1.80;;;10.70;99.90;;;;;;5074817;28;20230;-67
2023/01/07 08:11:50;;;;;;;1.97;1.87;;;10.70;99.90;;;;;;5074002;28;20218;-68
2023/01/07 08:14:19;;;;;;;2.20;2.10;;;10.70;99.90;;;;;;5074816;28;20196;-69
2023/01/07 08:16:47;;;;;;;1.87;1.77;;;10.70;99.90;;;;;;5074775;28;20200;-67
2023/01/07 08:19:15;;;;;;;1.53;1.53;;;10.70;99.90;;;;;;5073480;28;20188;-67
2023/01/07 08:21:44;;;;;;;1.60;1.53;;;10.70;99.90;;;;;;5107014;28;20192;-68
2023/01/07 08:24:12;;;;;;;2.60;1.80;;;10.70;99.90;;;;;;5074338;28;20279;-68
2023/01/07 08:26:42;;;;;;;1.43;1.43;;;10.70;99.90;;;;;;5074404;28;20192;-68
2023/01/07 08:29:10;;;;;;;1.50;1.50;;;10.70;99.90;;;;;;5068865;28;20224;-68
2023/01/07 08:31:39;;;;;;;1.40;1.40;;;10.70;99.90;;;;;;5076811;28;20595;-68
2023/01/07 08:34:07;;;;;;;1.77;1.40;;;10.60;99.90;;;;;;5093891;28;20191;-67
2023/01/07 08:36:36;;;;;;;1.63;1.30;;;10.60;99.90;;;;;;5074162;28;20192;-67
2023/01/07 08:39:04;;;;;;;1.50;1.40;;;10.60;99.90;;;;;;5074177;28;20198;-68
2023/01/07 08:41:32;;;;;;;1.40;1.40;;;10.60;99.90;;;;;;5073012;28;20196;-68
2023/01/07 08:44:02;;;;;;;1.37;1.37;;;10.60;99.90;;;;;;5074357;28;20192;-67
2023/01/07 08:46:30;;;;;;;1.53;1.40;;;10.60;99.90;;;;;;5073037;28;20188;-67
2023/01/07 08:48:59;;;;;;;1.97;1.63;;;10.60;99.90;;;;;;5074362;28;20279;-68
2023/01/07 08:51:27;;;;;;;1.67;1.67;;;10.60;99.90;;;;;;5074235;28;20184;-68
2023/01/07 08:53:55;;;;;;;3.07;1.60;;;10.60;99.90;;;;;;5073681;28;20215;-67
2023/01/07 08:56:24;;;;;;;1.60;1.50;;;10.60;99.90;;;;;;5072788;28;20198;-68
2023/01/07 08:58:52;;;;;;;2.10;2.00;;;10.60;99.90;;;;;;5073812;28;20208;-67
2023/01/07 09:01:22;;;;;;;2.17;1.70;;;10.60;99.90;;;;;;5073786;28;20192;-68
2023/01/07 09:03:50;;;;;;;1.50;1.50;;;10.60;99.90;;;;;;5073055;28;20176;-67
2023/01/07 09:06:19;;;;;;;1.87;1.60;;;10.60;99.90;;;;;;5073950;28;20211;-67
2023/01/07 09:08:47;;;;;;;2.30;2.20;;;10.60;99.90;;;;;;5073989;28;20206;-68
2023/01/07 09:11:15;;;;;;;3.80;2.73;;;10.60;99.90;;;;;;5073732;28;20527;-68
2023/01/07 09:13:43;;;;;;;2.70;2.50;;;10.70;99.90;;;;;;5073542;28;20204;-68
2023/01/07 09:16:12;;;;;;;4.30;2.50;;;10.70;99.90;;;;;;5055628;28;20194;-67
2023/01/07 09:18:41;;;;;;;4.83;3.40;;;10.80;99.90;;;;;;5073407;28;20227;-67
2023/01/07 09:21:10;;;;;;;2.73;2.50;;;10.80;99.90;;;;;;5072438;28;20191;-68
2023/01/07 09:23:39;;;;;;;4.43;3.20;;;10.80;99.90;;;;;;5073364;28;20190;-68
2023/01/07 09:26:07;;;;;;;7.27;4.27;;;10.80;99.90;;;;;;5073446;28;20192;-68
2023/01/07 09:28:36;;;;;;;10.17;4.00;;;10.90;99.90;;;;;;5073957;28;20195;-68
2023/01/07 09:31:07;;;;;;;6.60;4.47;;;10.90;99.90;;;;;;5072099;28;20192;-67
2023/01/07 09:33:35;;;;;;;9.80;4.57;;;11.00;99.90;;;;;;5073111;28;20211;-68
2023/01/07 09:36:05;;;;;;;7.03;3.70;;;11.00;99.90;;;;;;5071538;28;20219;-67
2023/01/07 09:38:34;;;;;;;8.23;3.77;;;11.00;99.90;;;;;;5073242;28;20199;-67
2023/01/07 09:41:02;;;;;;;9.53;4.57;;;11.00;99.90;;;;;;5073298;28;20543;-68
2023/01/07 09:43:35;;;;;;;6.83;3.80;;;11.10;99.90;;;;;;5072093;28;20184;-68
2023/01/07 09:46:24;;;;;;;5.30;3.60;;;11.10;99.90;;;;;;5073439;28;20520;-68
2023/01/07 09:48:56;;;;;;;6.40;3.30;;;11.10;99.90;;;;;;5073176;28;20188;-68
2023/01/07 09:51:31;;;;;;;4.50;3.43;;;11.20;99.90;;;;;;5073499;28;20196;-68
2023/01/07 09:54:02;;;;;;;5.57;2.87;;;11.20;99.90;;;;;;5073009;28;20215;-68
2023/01/07 09:56:33;;;;;;;4.23;3.13;;;11.20;99.90;;;;;;5073272;28;20764;-67
2023/01/07 09:59:04;;;;;;;3.70;2.97;;;11.30;99.90;;;;;;5073298;28;20215;-67
2023/01/07 10:01:37;;;;;;;4.10;2.60;;;11.30;99.90;;;;;;5071640;28;20188;-68
2023/01/07 10:04:19;;;;;;;3.80;3.03;;;11.60;99.90;;;;;;5073356;28;20188;-68
2023/01/07 10:06:58;;;;;;;4.87;2.93;;;11.70;99.90;;;;;;5073351;28;20202;-67
2023/01/07 10:09:34;;;;;;;2.70;2.50;;;11.80;99.90;;;;;;5073271;28;20670;-68
2023/01/07 10:12:11;;;;;;;2.93;2.47;;;11.80;99.90;;;;;;5073320;28;20680;-68
2023/01/07 10:14:58;;;;;;;4.20;2.60;;;11.70;99.90;;;;;;5073045;28;20200;-67
2023/01/07 10:17:41;;;;;;;2.43;2.23;;;11.60;99.90;;;;;;5072807;28;20227;-68
2023/01/07 10:20:19;;;;;;;3.70;2.80;;;11.50;99.90;;;;;;5073339;28;20589;-68
2023/01/07 10:22:54;;;;;;;2.80;2.60;;;11.30;99.90;;;;;;5072060;28;20199;-67
2023/01/07 10:25:26;;;;;;;2.73;2.53;;;11.30;99.90;;;;;;5072825;28;20202;-67
2023/01/07 10:27:58;;;;;;;4.27;2.90;;;11.20;99.90;;;;;;5063005;28;20686;-68
2023/01/07 10:30:30;;;;;;;4.73;2.90;;;11.30;99.90;;;;;;5067772;28;20215;-68
2023/01/07 10:33:10;;;;;;;2.60;2.30;;;11.40;99.90;;;;;;5071379;28;20195;-68
2023/01/07 10:35:44;;;;;;;2.30;2.10;;;11.40;99.90;;;;;;5075962;28;20275;-68
2023/01/07 10:38:18;;;;;;;2.80;1.77;;;11.30;99.90;;;;;;5057951;28;20201;-67
2023/01/07 10:40:51;;;;;;;2.47;1.80;;;11.30;99.90;;;;;;5076365;28;20204;-67
2023/01/07 10:43:51;;;;;;;2.23;2.13;;;11.30;99.90;;;;;;5076506;28;20183;-68
2023/01/07 10:46:34;;;;;;;2.07;1.97;;;11.30;99.90;;;;;;5075982;28;20204;-67
2023/01/07 10:49:19;;;;;;;1.83;1.73;;;11.30;99.90;;;;;;5076316;28;20184;-68
2023/01/07 10:52:03;;;;;;;1.80;1.77;;;11.30;99.90;;;;;;5076520;28;20211;-68
2023/01/07 10:54:56;;;;;;;2.43;2.27;;;11.40;99.90;;;;;;5076145;28;20212;-68
2023/01/07 10:57:27;;;;;;;1.80;1.80;;;11.40;99.90;;;;;;5076371;28;20605;-68
2023/01/07 11:00:01;;;;;;;1.80;1.80;;;11.40;99.90;;;;;;5109176;28;20208;-68
2023/01/07 11:02:30;;;;;;;4.53;1.87;;;11.40;99.90;;;;;;5071327;28;20189;-68
2023/01/07 11:05:38;;;;;;;2.03;1.93;;;11.50;99.90;;;;;;5058984;28;20199;-68
2023/01/07 11:08:26;;;;;;;1.97;1.87;;;11.50;99.90;;;;;;5074896;28;20192;-67
2023/01/07 11:10:57;;;;;;;1.93;1.70;;;11.70;99.90;;;;;;5076238;28;20184;-67
2023/01/07 11:13:30;;;;;;;2.00;1.90;;;11.80;99.90;;;;;;5057587;28;20222;-68
2023/01/07 11:16:06;;;;;;;1.80;1.80;;;11.90;99.90;;;;;;5074396;28;20195;-67
2023/01/07 11:18:45;;;;;;;1.97;1.70;;;12.00;99.90;;;;;;5074667;28;20570;-67
2023/01/07 11:21:31;;;;;;;2.03;1.90;;;12.20;99.90;;;;;;5075673;28;20203;-67
2023/01/07 11:24:32;;;;;;;1.80;1.70;;;12.10;99.90;;;;;;5075334;28;20200;-67
2023/01/07 11:27:13;;;;;;;2.03;1.80;;;12.20;99.90;;;;;;5075931;28;20624;-67
2023/01/07 11:29:44;;;;;;;1.80;1.80;;;12.40;99.90;;;;;;5074234;28;20199;-69
2023/01/07 11:32:21;;;;;;;1.80;1.80;;;12.40;99.90;;;;;;5075757;28;20188;-67
2023/01/07 11:34:56;;;;;;;1.80;1.57;;;12.50;99.90;;;;;;5074839;28;20212;-68
2023/01/07 11:37:32;;;;;;;2.00;1.90;;;12.40;99.90;;;;;;5075785;28;20638;-68
2023/01/07 11:40:04;;;;;;;2.63;1.83;;;12.40;99.90;;;;;;5075759;28;20207;-67
2023/01/07 11:42:46;;;;;;;1.57;1.57;;;12.30;99.90;;;;;;5071254;28;20189;-68
2023/01/07 11:49:26;;;;;;;1.73;1.70;;;12.00;99.90;;;;;;5055388;28;20181;-68
2023/01/07 11:51:55;;;;;;;1.63;1.63;;;12.20;99.90;;;;;;5055110;28;20543;-68
2023/01/07 11:54:26;;;;;;;2.10;2.10;;;12.20;99.90;;;;;;5074876;28;20630;-68
2023/01/07 11:57:11;;;;;;;3.30;1.93;;;12.10;99.90;;;;;;5056863;28;20200;-67
2023/01/07 11:59:42;;;;;;;2.03;1.93;;;12.00;99.90;;;;;;5075134;28;20249;-68
2023/01/07 12:02:26;;;;;;;1.73;1.63;;;12.10;99.90;;;;;;5075467;28;20192;-67
2023/01/07 12:05:16;;;;;;;1.93;1.83;;;12.20;99.90;;;;;;5075062;28;20200;-67
2023/01/07 12:07:46;;;;;;;1.93;1.70;;;12.20;99.90;;;;;;5074751;28;20242;-67
2023/01/07 12:10:28;;;;;;;2.40;2.20;;;12.30;99.90;;;;;;5073195;28;20317;-68
2023/01/07 12:12:57;;;;;;;2.20;2.10;;;12.30;99.90;;;;;;5078389;28;20195;-67
2023/01/07 12:15:30;;;;;;;2.00;1.90;;;12.30;99.90;;;;;;5094838;28;20617;-68
2023/01/07 12:18:32;;;;;;;2.40;1.80;;;12.30;99.90;;;;;;5087208;28;20587;-67
2023/01/07 12:21:25;;;;;;;1.90;1.80;;;12.30;99.90;;;;;;5055929;28;20550;-68
2023/01/07 12:24:08;;;;;;;2.30;1.63;;;12.30;99.90;;;;;;5061543;28;20617;-67
2023/01/07 12:26:45;;;;;;;1.83;1.80;;;12.30;99.90;;;;;;5053288;28;20216;-67
2023/01/07 12:29:23;;;;;;;1.90;1.90;;;12.30;99.90;;;;;;5064824;28;20188;-67
2023/01/07 12:32:04;;;;;;;1.70;1.70;;;12.40;99.90;;;;;;5074662;28;20681;-68
2023/01/07 12:34:44;;;;;;;2.67;2.47;;;12.50;99.90;;;;;;5074269;28;20220;-67
2023/01/07 12:37:24;;;;;;;1.70;1.70;;;12.60;99.90;;;;;;5073019;28;20191;-68
2023/01/07 12:39:58;;;;;;;1.90;1.80;;;12.70;99.90;;;;;;5074217;28;20191;-67
2023/01/07 12:42:31;;;;;;;1.77;1.67;;;12.80;99.90;;;;;;5074183;28;20202;-67
2023/01/07 12:45:04;;;;;;;1.77;1.67;;;12.80;99.90;;;;;;5074065;28;20184;-67
2023/01/07 12:47:37;;;;;;;1.80;1.80;;;12.70;99.90;;;;;;5074529;28;20176;-67
2023/01/07 12:54:06;;;;;;;3.03;2.60;;;12.80;99.90;;;;;;5072727;28;20182;-67
2023/01/07 12:56:39;;;;;;;4.60;2.57;;;12.50;99.90;;;;;;5072450;28;20217;-67
2023/01/07 12:59:15;;;;;;;2.87;2.67;;;12.30;99.90;;;;;;5072717;28;20208;-67
2023/01/07 13:02:15;;;;;;;2.73;2.53;;;12.10;99.90;;;;;;5074258;28;20566;-68
2023/01/07 13:04:53;;;;;;;5.73;2.90;;;12.10;99.90;;;;;;5073662;28;20209;-68
2023/01/07 13:07:27;;;;;;;5.70;2.83;;;12.10;99.90;;;;;;5073842;28;20200;-67
2023/01/07 13:10:04;;;;;;;2.97;2.70;;;12.10;99.90;;;;;;5073121;28;20187;-68
2023/01/07 13:12:48;;;;;;;5.67;2.87;;;12.00;99.90;;;;;;5106483;28;20226;-68
2023/01/07 13:15:25;;;;;;;2.50;2.30;;;12.00;99.90;;;;;;5072266;28;20211;-68
2023/01/07 13:17:55;;;;;;;5.17;2.33;;;12.00;99.90;;;;;;5072440;28;20231;-67
2023/01/07 13:20:39;;;;;;;3.63;2.70;;;11.90;99.90;;;;;;5074068;28;20543;-68
2023/01/07 13:23:16;;;;;;;2.80;2.07;;;11.90;99.90;;;;;;5073929;28;20187;-67
2023/01/07 13:25:54;;;;;;;2.47;2.13;;;11.90;99.90;;;;;;5072442;28;20588;-67
2023/01/07 13:28:43;;;;;;;2.57;2.37;;;11.90;99.90;;;;;;5072891;28;20233;-67